Time;durP1;ratioP1;P1;durP2;ratioP2;P2;SDS_P1;SDS_P2;PMS_P1;PMS_P2;Temp;Humidity;BMP_temperature;BMP_pressure;BME280_temperature;BME280_humidity;BME280_pressure;Samples;Min_cycle;Max_cycle;Signal;HPM_P1;HPM_P2
2023/07/13 00:00:36;;;;;;;1.45;0.60;;;26.30;42.60;;;;;;5035928;28;20087;-59
2023/07/13 00:03:03;;;;;;;2.17;0.93;;;26.30;42.50;;;;;;5039808;28;20052;-60
2023/07/13 00:05:29;;;;;;;2.17;0.80;;;26.30;42.50;;;;;;5036824;28;20202;-60
2023/07/13 00:07:55;;;;;;;3.50;0.85;;;26.20;42.40;;;;;;5036363;28;20064;-60
2023/07/13 00:10:22;;;;;;;2.40;0.75;;;26.20;42.40;;;;;;5040048;28;20036;-60
2023/07/13 00:12:48;;;;;;;2.10;1.00;;;26.20;42.40;;;;;;5034503;28;20040;-59
2023/07/13 00:15:23;;;;;;;2.08;0.70;;;26.20;42.40;;;;;;5036376;28;20060;-60
2023/07/13 00:17:50;;;;;;;3.72;1.00;;;26.20;42.40;;;;;;5040516;28;20126;-60
2023/07/13 00:20:16;;;;;;;2.22;0.70;;;26.20;42.30;;;;;;5041248;28;20417;-59
2023/07/13 00:22:42;;;;;;;1.73;0.65;;;26.20;42.30;;;;;;5039551;28;20029;-59
2023/07/13 00:25:11;;;;;;;1.67;0.68;;;26.20;42.30;;;;;;5039716;28;20024;-61
2023/07/13 00:27:37;;;;;;;2.33;0.70;;;26.20;42.30;;;;;;5016675;28;20041;-60
2023/07/13 00:30:05;;;;;;;2.33;0.77;;;26.20;42.30;;;;;;5022447;28;20108;-60
2023/07/13 00:32:31;;;;;;;3.85;0.80;;;26.20;42.30;;;;;;5016710;28;20448;-60
2023/07/13 00:35:00;;;;;;;1.80;0.75;;;26.20;42.30;;;;;;5004762;28;20311;-60
2023/07/13 00:37:26;;;;;;;2.53;0.77;;;26.20;42.30;;;;;;5015016;28;20380;-60
2023/07/13 00:39:52;;;;;;;1.25;0.63;;;26.20;42.30;;;;;;5037965;28;20357;-59
2023/07/13 00:42:18;;;;;;;3.00;0.80;;;26.20;42.30;;;;;;5024971;28;20022;-61
2023/07/13 00:45:27;;;;;;;1.23;0.47;;;26.20;42.30;;;;;;5018570;28;20060;-60
2023/07/13 00:47:53;;;;;;;2.28;0.77;;;26.20;42.20;;;;;;5037104;28;20068;-61
2023/07/13 00:50:21;;;;;;;3.25;0.90;;;26.10;42.20;;;;;;5034027;28;20120;-60
2023/07/13 00:52:53;;;;;;;2.00;0.80;;;26.10;42.20;;;;;;5020720;28;20110;-59
2023/07/13 00:55:21;;;;;;;2.33;0.88;;;26.10;42.20;;;;;;5023881;28;20025;-59
2023/07/13 00:57:49;;;;;;;1.75;0.63;;;26.10;42.20;;;;;;5018343;28;20308;-60
2023/07/13 01:00:16;;;;;;;2.40;0.55;;;26.10;42.20;;;;;;5041585;28;20043;-60
2023/07/13 01:02:46;;;;;;;2.30;0.77;;;26.10;42.20;;;;;;5025689;28;20040;-60
2023/07/13 01:05:21;;;;;;;2.28;0.57;;;26.10;42.20;;;;;;5027295;28;20317;-60
2023/07/13 01:07:49;;;;;;;0.93;0.57;;;26.10;42.20;;;;;;5020280;28;20037;-61
2023/07/13 01:10:16;;;;;;;1.83;0.80;;;26.10;42.20;;;;;;5030567;28;20041;-61
2023/07/13 01:12:42;;;;;;;1.30;0.63;;;26.10;42.20;;;;;;5029896;28;20068;-59
2023/07/13 01:15:38;;;;;;;2.47;0.70;;;26.10;42.20;;;;;;5033009;28;20091;-59
2023/07/13 01:18:18;;;;;;;2.53;0.60;;;26.10;42.20;;;;;;5048089;28;20032;-60
2023/07/13 01:21:11;;;;;;;1.30;0.50;;;26.00;42.20;;;;;;5035956;28;20139;-60
2023/07/13 01:23:39;;;;;;;1.90;0.70;;;26.10;42.20;;;;;;5020120;28;20064;-60
2023/07/13 01:26:05;;;;;;;2.22;0.70;;;26.10;42.20;;;;;;5016038;28;20036;-60
2023/07/13 01:28:36;;;;;;;1.98;0.60;;;26.00;42.20;;;;;;5050525;28;20104;-61
2023/07/13 01:31:02;;;;;;;2.15;0.80;;;26.00;42.20;;;;;;5049360;28;20120;-60
2023/07/13 01:33:29;;;;;;;2.28;0.50;;;26.00;42.20;;;;;;5026355;28;20033;-60
2023/07/13 01:35:59;;;;;;;3.17;1.00;;;26.00;42.20;;;;;;5013152;28;20112;-60
2023/07/13 01:38:25;;;;;;;1.40;0.73;;;26.00;42.20;;;;;;5040671;28;20131;-60
2023/07/13 01:40:52;;;;;;;2.30;0.80;;;26.00;42.20;;;;;;5032195;28;20480;-60
2023/07/13 01:43:19;;;;;;;1.55;0.50;;;26.00;42.20;;;;;;5014281;28;20067;-61
2023/07/13 01:45:45;;;;;;;1.15;0.40;;;26.00;42.20;;;;;;5023866;28;20058;-61
2023/07/13 01:48:12;;;;;;;1.58;0.70;;;26.00;42.20;;;;;;5028256;28;20169;-60
2023/07/13 01:50:38;;;;;;;1.75;0.60;;;26.00;42.20;;;;;;5009425;28;20042;-60
2023/07/13 01:53:05;;;;;;;4.50;0.85;;;26.00;42.20;;;;;;5010852;28;20173;-61
2023/07/13 01:55:31;;;;;;;1.23;0.60;;;26.00;42.20;;;;;;5009852;28;20111;-62
2023/07/13 01:57:57;;;;;;;1.75;0.77;;;26.00;42.30;;;;;;5014157;28;20109;-61
2023/07/13 02:00:24;;;;;;;2.25;0.60;;;25.90;42.20;;;;;;5012925;28;20117;-61
2023/07/13 02:02:50;;;;;;;1.27;0.57;;;26.00;42.30;;;;;;5029922;28;20078;-60
2023/07/13 02:05:17;;;;;;;0.82;0.30;;;26.00;42.30;;;;;;5030179;28;20030;-61
2023/07/13 02:07:43;;;;;;;3.72;0.77;;;25.90;42.20;;;;;;5027612;28;20026;-60
2023/07/13 02:10:10;;;;;;;2.15;0.75;;;25.90;42.20;;;;;;5016240;28;20025;-62
2023/07/13 02:12:37;;;;;;;1.52;0.65;;;25.90;42.20;;;;;;5028885;28;20122;-61
2023/07/13 02:15:04;;;;;;;2.00;0.77;;;25.90;42.20;;;;;;5029192;28;20070;-61
2023/07/13 02:17:30;;;;;;;2.55;0.60;;;25.90;42.20;;;;;;5028601;28;20073;-61
2023/07/13 02:19:56;;;;;;;3.42;0.70;;;25.90;42.20;;;;;;5028334;28;20029;-60
2023/07/13 02:22:22;;;;;;;1.77;0.82;;;25.90;42.20;;;;;;5022141;28;20026;-61
2023/07/13 02:24:49;;;;;;;1.90;0.65;;;25.90;42.20;;;;;;5009428;28;20357;-62
2023/07/13 02:27:18;;;;;;;1.42;0.60;;;25.90;42.30;;;;;;5010739;28;20038;-60
2023/07/13 02:29:44;;;;;;;1.60;0.60;;;25.90;42.30;;;;;;5010823;28;20121;-62
2023/07/13 02:32:10;;;;;;;2.53;0.90;;;25.90;42.30;;;;;;5025193;28;20131;-61
2023/07/13 02:34:36;;;;;;;1.55;0.70;;;25.90;42.30;;;;;;5016384;28;20377;-62
2023/07/13 02:37:04;;;;;;;2.65;0.80;;;25.80;42.30;;;;;;5010633;28;20069;-63
2023/07/13 02:39:32;;;;;;;0.95;0.65;;;25.80;42.30;;;;;;5010833;28;20124;-61
2023/07/13 02:42:00;;;;;;;1.23;0.50;;;25.80;42.30;;;;;;5014409;28;20038;-61
2023/07/13 02:44:26;;;;;;;2.30;0.80;;;25.80;42.30;;;;;;5010789;28;20409;-60
2023/07/13 02:46:52;;;;;;;2.03;0.70;;;25.80;42.30;;;;;;5038751;28;20400;-61
2023/07/13 02:49:18;;;;;;;0.60;0.40;;;25.80;42.30;;;;;;5049426;28;20056;-61
2023/07/13 02:51:44;;;;;;;2.58;0.70;;;25.80;42.40;;;;;;5050088;28;20059;-61
2023/07/13 02:54:11;;;;;;;1.38;0.52;;;25.80;42.40;;;;;;5049753;28;20445;-61
2023/07/13 02:56:38;;;;;;;2.25;0.77;;;25.80;42.40;;;;;;5033278;28;20032;-61
2023/07/13 02:59:05;;;;;;;2.95;0.93;;;25.80;42.40;;;;;;5034967;28;20032;-61
2023/07/13 03:01:35;;;;;;;1.92;0.80;;;25.80;42.50;;;;;;5015021;28;20068;-62
2023/07/13 03:04:02;;;;;;;2.65;0.77;;;25.80;42.50;;;;;;5015823;28;20030;-61
2023/07/13 03:06:31;;;;;;;2.22;0.70;;;25.80;42.50;;;;;;5028784;28;20143;-62
2023/07/13 03:08:59;;;;;;;2.92;0.80;;;25.80;42.50;;;;;;5028255;28;20445;-61
2023/07/13 03:11:26;;;;;;;2.67;0.65;;;25.70;42.60;;;;;;5033278;28;20128;-59
2023/07/13 03:14:04;;;;;;;2.42;0.80;;;25.70;42.50;;;;;;5035417;28;20124;-61
2023/07/13 03:16:34;;;;;;;1.30;0.70;;;25.70;42.50;;;;;;5034199;28;20287;-60
2023/07/13 03:19:00;;;;;;;1.52;0.60;;;25.80;42.60;;;;;;5052341;28;20408;-60
2023/07/13 03:21:28;;;;;;;1.63;0.70;;;25.70;42.60;;;;;;5026798;28;20413;-59
2023/07/13 03:23:54;;;;;;;1.73;0.70;;;25.70;42.70;;;;;;5052176;28;20044;-60
2023/07/13 03:26:20;;;;;;;1.48;0.57;;;25.70;42.70;;;;;;5018472;28;20436;-61
2023/07/13 03:28:47;;;;;;;3.67;0.75;;;25.70;42.70;;;;;;5034838;28;20444;-61
2023/07/13 03:31:24;;;;;;;2.35;0.88;;;25.70;42.70;;;;;;5034472;28;20073;-60
2023/07/13 03:33:51;;;;;;;2.10;0.70;;;25.70;42.80;;;;;;5033540;28;20026;-60
2023/07/13 03:36:24;;;;;;;2.13;0.65;;;25.70;42.80;;;;;;5034850;28;20421;-61
2023/07/13 03:38:56;;;;;;;1.83;0.73;;;25.60;42.70;;;;;;5016572;28;20491;-60
2023/07/13 03:41:26;;;;;;;2.58;0.80;;;25.70;42.80;;;;;;5015009;28;20088;-60
2023/07/13 03:43:54;;;;;;;2.17;0.70;;;25.70;42.90;;;;;;5014820;28;20041;-59
2023/07/13 03:46:21;;;;;;;1.77;0.70;;;25.60;42.90;;;;;;5029528;28;20234;-60
2023/07/13 03:48:48;;;;;;;2.03;0.77;;;25.60;42.90;;;;;;5030415;28;20103;-60
2023/07/13 03:51:15;;;;;;;2.00;0.65;;;25.60;42.90;;;;;;5034361;28;20519;-61
2023/07/13 03:53:43;;;;;;;1.42;0.65;;;25.60;42.90;;;;;;5042358;28;20044;-61
2023/07/13 03:56:12;;;;;;;1.92;0.85;;;25.60;42.90;;;;;;5014474;28;20111;-59
2023/07/13 03:58:39;;;;;;;2.78;0.65;;;25.60;42.90;;;;;;5023079;28;20103;-61
2023/07/13 04:01:13;;;;;;;2.45;0.70;;;25.60;43.00;;;;;;5033782;28;20419;-60
2023/07/13 04:03:39;;;;;;;1.42;0.70;;;25.60;43.00;;;;;;5033350;28;20029;-60
2023/07/13 04:06:07;;;;;;;4.20;0.80;;;25.60;43.00;;;;;;5024817;28;20344;-62
2023/07/13 04:08:36;;;;;;;2.20;0.60;;;25.60;43.00;;;;;;5014351;28;20045;-60
2023/07/13 04:11:04;;;;;;;2.78;1.13;;;25.60;43.00;;;;;;5026313;28;20053;-60
2023/07/13 04:13:30;;;;;;;2.08;0.90;;;25.60;43.10;;;;;;5034049;28;20468;-60
2023/07/13 04:15:56;;;;;;;2.72;0.90;;;25.60;43.10;;;;;;5052237;28;20040;-62
2023/07/13 04:18:22;;;;;;;3.65;0.90;;;25.60;43.10;;;;;;5049996;28;20037;-60
2023/07/13 04:20:49;;;;;;;1.75;0.77;;;25.60;43.10;;;;;;5051756;28;20129;-61
2023/07/13 04:23:19;;;;;;;2.15;0.77;;;25.60;43.10;;;;;;5037572;28;20083;-60
2023/07/13 04:25:49;;;;;;;1.30;0.60;;;25.60;43.10;;;;;;5044772;28;20033;-60
2023/07/13 04:28:17;;;;;;;2.55;0.70;;;25.60;43.20;;;;;;5051712;28;20170;-59
2023/07/13 04:30:43;;;;;;;1.67;0.65;;;25.60;43.20;;;;;;5046623;28;20039;-60
2023/07/13 04:33:09;;;;;;;1.20;0.80;;;25.60;43.20;;;;;;5039293;28;20033;-60
2023/07/13 04:35:37;;;;;;;1.67;0.77;;;25.60;43.20;;;;;;5031299;28;20411;-59
2023/07/13 04:38:03;;;;;;;1.58;0.70;;;25.60;43.40;;;;;;5048854;28;20096;-60
2023/07/13 04:40:29;;;;;;;1.70;0.90;;;25.60;43.30;;;;;;5050979;28;20029;-60
2023/07/13 04:42:56;;;;;;;2.97;0.93;;;25.60;43.30;;;;;;5051739;28;20097;-59
2023/07/13 04:45:25;;;;;;;2.00;0.70;;;25.60;43.30;;;;;;5051361;28;20397;-59
2023/07/13 04:47:52;;;;;;;2.67;1.08;;;25.60;43.30;;;;;;5049126;28;20033;-60
2023/07/13 04:50:22;;;;;;;1.45;0.75;;;25.60;43.30;;;;;;5051616;28;20364;-59
2023/07/13 04:52:51;;;;;;;2.97;0.88;;;25.70;43.40;;;;;;5051179;28;20083;-60
2023/07/13 04:55:18;;;;;;;1.80;0.82;;;25.60;43.40;;;;;;5040444;28;20129;-60
2023/07/13 04:57:45;;;;;;;2.50;1.05;;;25.60;43.40;;;;;;5040176;28;20037;-59
2023/07/13 05:00:12;;;;;;;2.25;0.90;;;25.60;43.50;;;;;;5050311;28;20103;-60
2023/07/13 05:02:39;;;;;;;1.80;0.90;;;25.70;43.50;;;;;;5040352;28;20111;-59
2023/07/13 05:05:06;;;;;;;2.17;0.82;;;25.70;43.60;;;;;;5031295;28;20037;-60
2023/07/13 05:07:36;;;;;;;2.00;0.90;;;25.60;43.60;;;;;;5043160;28;20060;-60
2023/07/13 05:10:03;;;;;;;2.03;0.70;;;25.60;43.80;;;;;;5031313;28;20037;-61
2023/07/13 05:12:30;;;;;;;2.10;0.68;;;25.70;44.30;;;;;;5034078;28;20049;-59
2023/07/13 05:14:56;;;;;;;3.28;0.70;;;25.70;43.70;;;;;;5031201;28;20314;-60
2023/07/13 05:17:22;;;;;;;3.58;0.88;;;25.70;43.70;;;;;;5041484;28;20096;-60
2023/07/13 05:19:48;;;;;;;4.47;1.15;;;25.60;43.70;;;;;;5047978;28;20058;-60
2023/07/13 05:22:14;;;;;;;2.78;0.98;;;25.70;43.80;;;;;;5028759;28;20051;-60
2023/07/13 05:24:40;;;;;;;2.47;0.80;;;25.70;43.80;;;;;;5025837;28;20179;-60
2023/07/13 05:27:06;;;;;;;2.40;0.82;;;25.60;43.80;;;;;;5050308;28;20458;-60
2023/07/13 05:29:32;;;;;;;4.03;1.17;;;25.70;43.90;;;;;;5050844;28;20035;-59
2023/07/13 05:31:58;;;;;;;2.13;0.80;;;25.60;43.80;;;;;;5047375;28;20116;-61
2023/07/13 05:34:24;;;;;;;2.42;1.25;;;25.70;43.90;;;;;;5047441;28;20071;-59
2023/07/13 05:36:50;;;;;;;2.47;1.08;;;25.70;44.00;;;;;;5039222;28;20097;-60
2023/07/13 05:39:17;;;;;;;2.67;1.00;;;25.60;43.90;;;;;;5050638;28;20073;-61
2023/07/13 05:41:42;;;;;;;2.75;1.05;;;25.70;44.00;;;;;;5032446;28;20320;-60
2023/07/13 05:44:08;;;;;;;2.78;0.90;;;25.70;44.00;;;;;;5050072;28;20092;-60
2023/07/13 05:46:35;;;;;;;2.30;0.73;;;25.60;44.00;;;;;;5049492;28;20089;-60
2023/07/13 05:49:01;;;;;;;4.60;1.35;;;25.70;44.10;;;;;;5050380;28;20045;-60
2023/07/13 05:51:27;;;;;;;5.03;1.45;;;25.60;44.10;;;;;;5048007;28;20285;-60
2023/07/13 05:53:53;;;;;;;3.22;1.17;;;25.60;44.10;;;;;;5050546;28;20031;-61
2023/07/13 05:56:19;;;;;;;3.13;1.23;;;25.70;44.30;;;;;;5032274;28;20180;-59
2023/07/13 05:58:45;;;;;;;2.53;0.90;;;25.60;44.30;;;;;;5047099;28;20127;-62
2023/07/13 06:01:13;;;;;;;2.88;1.20;;;25.70;44.30;;;;;;5036238;28;20477;-60
2023/07/13 06:03:39;;;;;;;2.58;1.05;;;25.60;44.30;;;;;;5018715;28;20361;-61
2023/07/13 06:06:05;;;;;;;5.50;1.60;;;25.70;44.40;;;;;;5026493;28;20425;-60
2023/07/13 06:08:31;;;;;;;3.83;1.30;;;25.60;44.40;;;;;;5046865;28;20029;-60
2023/07/13 06:11:25;;;;;;;4.25;1.65;;;25.70;44.50;;;;;;5036935;28;20301;-60
2023/07/13 06:13:53;;;;;;;2.92;1.30;;;25.70;44.50;;;;;;5031977;28;20047;-61
2023/07/13 06:16:19;;;;;;;2.90;1.30;;;25.70;44.60;;;;;;5040802;28;20119;-59
2023/07/13 06:18:51;;;;;;;3.17;1.48;;;25.70;44.60;;;;;;5035349;28;20057;-59
2023/07/13 06:21:21;;;;;;;1.55;0.93;;;25.70;44.70;;;;;;5030547;28;20045;-60
2023/07/13 06:23:48;;;;;;;3.95;1.65;;;25.70;44.70;;;;;;5042618;28;20033;-62
2023/07/13 06:26:15;;;;;;;4.00;1.23;;;25.70;44.70;;;;;;5050065;28;20371;-59
2023/07/13 06:28:41;;;;;;;3.58;1.65;;;25.70;44.80;;;;;;5049436;28;20025;-61
2023/07/13 06:31:09;;;;;;;3.45;1.38;;;25.70;44.90;;;;;;5050135;28;20028;-61
2023/07/13 06:33:36;;;;;;;4.28;1.85;;;25.70;44.90;;;;;;5033850;28;20057;-62
2023/07/13 06:36:05;;;;;;;3.33;1.30;;;25.70;44.90;;;;;;5016822;28;20361;-60
2023/07/13 06:38:31;;;;;;;2.45;1.10;;;25.70;45.00;;;;;;5049504;28;20028;-60
2023/07/13 06:40:58;;;;;;;4.95;1.70;;;25.70;45.00;;;;;;5048211;28;20025;-59
2023/07/13 06:43:24;;;;;;;2.83;1.60;;;25.70;45.10;;;;;;5046467;28;20064;-60
2023/07/13 06:45:51;;;;;;;4.43;1.50;;;25.70;45.20;;;;;;5053092;28;20053;-59
2023/07/13 06:48:19;;;;;;;3.08;1.48;;;25.80;45.30;;;;;;5053131;28;20438;-60
2023/07/13 06:50:46;;;;;;;3.85;1.75;;;25.70;45.30;;;;;;5046611;28;20199;-60
2023/07/13 06:53:12;;;;;;;3.15;1.55;;;25.80;45.40;;;;;;5048943;28;20096;-60
2023/07/13 06:55:39;;;;;;;3.50;1.60;;;25.80;45.40;;;;;;5044355;28;20103;-61
2023/07/13 06:58:05;;;;;;;3.35;1.58;;;25.80;45.50;;;;;;5039618;28;20078;-60
2023/07/13 07:00:32;;;;;;;3.47;1.58;;;25.70;45.40;;;;;;5042279;28;20037;-60
2023/07/13 07:02:58;;;;;;;5.25;1.75;;;25.80;45.60;;;;;;5043959;28;20314;-60
2023/07/13 07:05:24;;;;;;;2.65;1.70;;;25.80;45.60;;;;;;5018678;28;20357;-63
2023/07/13 07:07:52;;;;;;;4.18;1.70;;;25.80;45.60;;;;;;5044417;28;20094;-61
2023/07/13 07:10:18;;;;;;;3.58;1.83;;;25.80;45.70;;;;;;5051404;28;20033;-60
2023/07/13 07:12:44;;;;;;;6.10;1.92;;;25.80;45.70;;;;;;5050443;28;20044;-60
2023/07/13 07:15:10;;;;;;;5.10;2.03;;;25.80;45.70;;;;;;5047189;28;20467;-59
2023/07/13 07:17:36;;;;;;;3.28;1.70;;;25.80;45.80;;;;;;5040020;28;20090;-59
2023/07/13 07:20:03;;;;;;;3.45;1.88;;;25.80;45.80;;;;;;5052916;28;20040;-61
2023/07/13 07:22:30;;;;;;;3.80;2.05;;;25.80;45.90;;;;;;5022491;28;20029;-60
2023/07/13 07:24:56;;;;;;;3.58;1.73;;;25.80;45.90;;;;;;5052485;28;20379;-60
2023/07/13 07:27:23;;;;;;;4.90;2.00;;;25.80;45.90;;;;;;5021111;28;20033;-60
2023/07/13 07:29:49;;;;;;;4.13;2.10;;;25.80;46.00;;;;;;5033130;28;20065;-60
2023/07/13 07:32:15;;;;;;;5.63;2.25;;;25.80;46.00;;;;;;5022511;28;20040;-60
2023/07/13 07:34:41;;;;;;;4.85;1.83;;;25.80;46.00;;;;;;5052293;28;20039;-61
2023/07/13 07:37:11;;;;;;;4.05;1.52;;;25.80;46.00;;;;;;5052545;28;20081;-60
2023/07/13 07:39:37;;;;;;;4.35;1.55;;;25.80;46.00;;;;;;5042554;28;20074;-62
2023/07/13 07:42:04;;;;;;;3.63;1.50;;;25.90;46.10;;;;;;5038544;28;20036;-59
2023/07/13 07:44:34;;;;;;;4.85;1.95;;;25.90;46.10;;;;;;5021679;28;20030;-60
2023/07/13 07:47:01;;;;;;;4.13;1.77;;;25.90;46.10;;;;;;5041704;28;20470;-60
2023/07/13 07:49:27;;;;;;;2.83;1.30;;;25.90;46.10;;;;;;5045526;28;20057;-60
2023/07/13 07:51:53;;;;;;;5.65;1.85;;;25.90;46.10;;;;;;5025623;28;20063;-61
2023/07/13 07:54:19;;;;;;;4.25;1.65;;;25.90;46.10;;;;;;5038108;28;20021;-60
2023/07/13 07:56:45;;;;;;;5.07;1.95;;;25.90;46.10;;;;;;5034913;28;20322;-62
2023/07/13 07:59:11;;;;;;;4.10;1.95;;;25.90;46.20;;;;;;5032386;28;20314;-59
2023/07/13 08:01:37;;;;;;;3.95;1.45;;;25.90;46.20;;;;;;5031882;28;20033;-61
2023/07/13 08:04:03;;;;;;;4.25;1.73;;;25.90;46.20;;;;;;5044879;28;20041;-60
2023/07/13 08:06:33;;;;;;;5.00;2.00;;;25.90;46.30;;;;;;5037973;28;20439;-61
2023/07/13 08:08:59;;;;;;;4.55;1.70;;;25.90;46.30;;;;;;5041772;28;20358;-60
2023/07/13 08:11:25;;;;;;;5.85;1.95;;;25.90;46.30;;;;;;5051176;28;20047;-61
2023/07/13 08:13:51;;;;;;;4.30;1.88;;;25.90;46.30;;;;;;5049781;28;20412;-61
2023/07/13 08:16:17;;;;;;;3.75;1.80;;;25.90;46.40;;;;;;5027918;28;20409;-62
2023/07/13 08:18:43;;;;;;;4.80;2.20;;;25.90;46.40;;;;;;5040993;28;20029;-59
2023/07/13 08:21:09;;;;;;;4.40;2.00;;;26.00;46.50;;;;;;5041826;28;20447;-63
2023/07/13 08:23:36;;;;;;;2.97;1.52;;;25.90;46.40;;;;;;5050568;28;20094;-60
2023/07/13 08:26:02;;;;;;;4.55;1.90;;;25.90;46.40;;;;;;5051358;28;20041;-60
2023/07/13 08:28:29;;;;;;;6.20;2.00;;;26.00;46.50;;;;;;5041458;28;20071;-60
2023/07/13 08:30:55;;;;;;;4.72;1.90;;;26.00;46.50;;;;;;5050038;28;20037;-59
2023/07/13 08:33:25;;;;;;;4.80;1.80;;;25.90;46.40;;;;;;5048366;28;20033;-59
2023/07/13 08:35:51;;;;;;;3.78;1.70;;;26.00;46.50;;;;;;5031418;28;20025;-60
2023/07/13 08:38:18;;;;;;;3.10;1.80;;;26.00;46.50;;;;;;5035274;28;20471;-61
2023/07/13 08:40:44;;;;;;;5.18;2.08;;;25.90;46.40;;;;;;5039073;28;20025;-60
2023/07/13 08:43:20;;;;;;;3.95;2.13;;;26.00;46.50;;;;;;5050458;28;20455;-60
2023/07/13 08:45:51;;;;;;;4.05;1.60;;;26.00;46.50;;;;;;5049653;28;20068;-60
2023/07/13 08:48:39;;;;;;;4.65;1.75;;;26.00;46.50;;;;;;5031896;28;20123;-61
2023/07/13 08:51:34;;;;;;;4.43;2.08;;;26.00;46.40;;;;;;5045601;28;20044;-60
2023/07/13 08:54:02;;;;;;;3.92;2.20;;;26.00;46.40;;;;;;5041517;28;20098;-60
2023/07/13 08:56:31;;;;;;;3.45;1.77;;;26.00;46.40;;;;;;5045858;28;20056;-60
2023/07/13 08:59:00;;;;;;;4.32;2.30;;;26.00;46.40;;;;;;5043585;28;20182;-60
2023/07/13 09:02:09;;;;;;;3.35;1.65;;;26.00;46.40;;;;;;5039226;28;20026;-62
2023/07/13 09:04:41;;;;;;;4.35;2.30;;;26.00;46.30;;;;;;5048334;28;20036;-60
2023/07/13 09:07:24;;;;;;;4.03;1.77;;;26.00;46.30;;;;;;5039405;28;20590;-62
2023/07/13 09:10:04;;;;;;;5.68;1.90;;;26.00;47.00;;;;;;5037915;28;20033;-61
2023/07/13 09:12:43;;;;;;;5.63;2.22;;;26.00;46.30;;;;;;5042776;28;20052;-62
2023/07/13 09:15:32;;;;;;;5.47;1.80;;;26.00;46.30;;;;;;5036186;28;20029;-61
2023/07/13 09:18:07;;;;;;;4.88;1.92;;;26.00;46.30;;;;;;5043079;28;20114;-61
2023/07/13 09:20:53;;;;;;;4.22;1.50;;;26.00;46.20;;;;;;5036229;28;20370;-62
2023/07/13 09:23:22;;;;;;;4.03;1.75;;;26.00;46.10;;;;;;5046703;28;20024;-63
2023/07/13 09:25:55;;;;;;;4.07;1.98;;;26.00;46.00;;;;;;5050159;28;20028;-61
2023/07/13 09:28:26;;;;;;;5.00;1.75;;;26.00;45.90;;;;;;5048757;28;20025;-62
2023/07/13 09:31:07;;;;;;;5.35;1.83;;;26.10;45.80;;;;;;5020524;28;20348;-61
2023/07/13 09:33:34;;;;;;;3.15;2.08;;;26.10;45.70;;;;;;5044504;28;20043;-60
2023/07/13 09:36:01;;;;;;;3.17;1.70;;;26.10;45.60;;;;;;5045882;28;20021;-59
2023/07/13 09:38:29;;;;;;;3.58;1.60;;;26.10;46.10;;;;;;5046016;28;20478;-60
2023/07/13 09:41:19;;;;;;;3.00;1.60;;;26.20;45.40;;;;;;5043625;28;20079;-60
2023/07/13 09:44:06;;;;;;;2.72;1.35;;;26.20;45.30;;;;;;5022950;28;20044;-62
2023/07/13 09:46:32;;;;;;;3.55;1.73;;;26.20;45.30;;;;;;5042691;28;20112;-61
2023/07/13 09:48:58;;;;;;;3.65;1.50;;;26.20;45.30;;;;;;5036379;28;20098;-62
2023/07/13 09:51:24;;;;;;;2.70;1.30;;;26.20;45.30;;;;;;5042289;28;20210;-60
2023/07/13 09:53:50;;;;;;;2.25;1.40;;;26.20;45.90;;;;;;5039115;28;20091;-62
2023/07/13 09:56:21;;;;;;;2.78;1.27;;;26.20;45.20;;;;;;5048520;28;20033;-62
2023/07/13 09:58:47;;;;;;;2.20;1.20;;;26.20;45.10;;;;;;5021855;28;20087;-62
2023/07/13 10:01:14;;;;;;;4.45;1.73;;;26.20;45.00;;;;;;5045003;28;20041;-61
2023/07/13 10:03:53;;;;;;;2.55;1.35;;;26.20;45.00;;;;;;5040939;28;20432;-60
2023/07/13 10:06:22;;;;;;;4.32;1.80;;;26.20;45.00;;;;;;5029791;28;20183;-61
2023/07/13 10:08:53;;;;;;;2.85;1.55;;;26.20;45.00;;;;;;5022799;28;20041;-61
2023/07/13 10:11:33;;;;;;;3.78;1.17;;;26.20;45.10;;;;;;5037212;28;20494;-61
2023/07/13 10:14:02;;;;;;;3.40;1.20;;;26.20;45.20;;;;;;5049299;28;20025;-59
2023/07/13 10:16:35;;;;;;;2.75;1.25;;;26.20;45.20;;;;;;5026429;28;20171;-59
2023/07/13 10:19:13;;;;;;;3.30;1.30;;;26.20;45.30;;;;;;5020163;28;20134;-60
2023/07/13 10:21:52;;;;;;;3.45;1.45;;;26.20;45.30;;;;;;5046042;28;20146;-60
2023/07/13 10:24:22;;;;;;;3.22;1.00;;;26.20;45.40;;;;;;5048874;28;20135;-60
2023/07/13 10:26:58;;;;;;;2.60;1.05;;;26.20;45.40;;;;;;5047516;28;20111;-60
2023/07/13 10:29:27;;;;;;;2.63;1.42;;;26.20;45.40;;;;;;5039360;28;20049;-60
2023/07/13 10:31:53;;;;;;;3.13;1.40;;;26.30;45.60;;;;;;5034071;28;20332;-62
2023/07/13 10:34:19;;;;;;;3.03;1.33;;;26.30;45.60;;;;;;5030345;28;20087;-58
2023/07/13 10:36:47;;;;;;;3.55;1.30;;;26.30;45.50;;;;;;5036976;28;20029;-62
2023/07/13 10:39:20;;;;;;;2.88;1.00;;;26.30;45.50;;;;;;5041864;28;20067;-60
2023/07/13 10:42:00;;;;;;;3.40;1.20;;;26.30;45.50;;;;;;5044104;28;20040;-58
2023/07/13 10:44:29;;;;;;;3.65;1.27;;;26.30;45.40;;;;;;5042219;28;20368;-61
2023/07/13 10:47:06;;;;;;;3.33;1.40;;;26.30;45.40;;;;;;5041322;28;20101;-59
2023/07/13 10:49:36;;;;;;;2.88;0.93;;;26.30;45.30;;;;;;5039702;28;20059;-62
2023/07/13 10:52:02;;;;;;;3.28;1.27;;;26.30;45.20;;;;;;5044037;28;20048;-61
2023/07/13 10:54:34;;;;;;;3.25;1.10;;;26.30;45.10;;;;;;5038279;28;20402;-61
2023/07/13 10:57:21;;;;;;;2.13;0.98;;;26.30;45.10;;;;;;5041733;28;20112;-62
2023/07/13 11:00:17;;;;;;;4.07;1.40;;;26.30;45.10;;;;;;5037006;28;20362;-63
2023/07/13 11:02:43;;;;;;;2.63;1.05;;;26.30;45.20;;;;;;5040904;28;20125;-60
2023/07/13 11:05:31;;;;;;;3.30;1.67;;;26.40;45.50;;;;;;5045605;28;20211;-63
2023/07/13 11:08:16;;;;;;;2.38;1.20;;;26.40;45.80;;;;;;5016778;28;20100;-63
2023/07/13 11:11:00;;;;;;;1.88;1.00;;;26.40;46.00;;;;;;5040501;28;20176;-61
2023/07/13 11:13:45;;;;;;;3.25;1.38;;;26.30;46.10;;;;;;5030976;28;20029;-61
2023/07/13 11:16:44;;;;;;;2.92;1.15;;;26.40;46.20;;;;;;5034570;28;20070;-61
2023/07/13 11:19:16;;;;;;;2.60;1.25;;;26.40;46.40;;;;;;5045787;28;20055;-61
2023/07/13 11:22:05;;;;;;;2.90;1.20;;;26.40;46.70;;;;;;5040073;28;20147;-62
2023/07/13 11:24:50;;;;;;;2.85;1.17;;;26.40;46.60;;;;;;5031083;28;20044;-61
2023/07/13 11:27:43;;;;;;;2.90;1.23;;;26.40;46.60;;;;;;5045366;28;20112;-61
2023/07/13 11:30:24;;;;;;;2.20;1.00;;;26.40;46.70;;;;;;5043534;28;20037;-61
2023/07/13 11:33:23;;;;;;;2.53;1.02;;;26.40;46.50;;;;;;5028483;28;20052;-62
2023/07/13 11:36:02;;;;;;;2.28;0.98;;;26.40;46.40;;;;;;5020723;28;20448;-64
2023/07/13 11:38:35;;;;;;;3.03;1.00;;;26.40;46.40;;;;;;5046151;28;20430;-61
2023/07/13 11:41:24;;;;;;;2.22;1.17;;;26.40;46.20;;;;;;5038534;28;20112;-62
2023/07/13 11:43:53;;;;;;;1.65;0.75;;;26.40;46.00;;;;;;5042296;28;20029;-61
2023/07/13 11:46:24;;;;;;;1.95;0.98;;;26.40;45.80;;;;;;5040450;28;20037;-63
2023/07/13 11:48:51;;;;;;;2.33;1.00;;;26.40;45.50;;;;;;5038777;28;20055;-60
2023/07/13 11:51:31;;;;;;;1.88;0.90;;;26.40;45.40;;;;;;5039972;28;20082;-63
2023/07/13 11:53:59;;;;;;;1.20;0.98;;;26.40;45.10;;;;;;5018801;28;20311;-62
2023/07/13 11:56:26;;;;;;;0.95;0.65;;;26.40;45.00;;;;;;5039088;28;20440;-60
2023/07/13 11:58:56;;;;;;;1.70;0.88;;;26.40;44.80;;;;;;5045679;28;20029;-62
2023/07/13 12:01:32;;;;;;;2.17;0.90;;;26.40;44.60;;;;;;5044341;28;20047;-61
2023/07/13 12:04:02;;;;;;;2.13;0.93;;;26.40;44.60;;;;;;5048011;28;20379;-61
2023/07/13 12:06:31;;;;;;;2.22;1.17;;;26.40;44.40;;;;;;5037430;28;20116;-61
2023/07/13 12:09:03;;;;;;;1.08;0.75;;;26.50;44.40;;;;;;5032259;28;20675;-60
2023/07/13 12:11:30;;;;;;;1.45;0.77;;;26.40;44.30;;;;;;5050528;28;20079;-62
2023/07/13 12:13:56;;;;;;;2.97;1.00;;;26.50;44.30;;;;;;5033865;28;20414;-61
2023/07/13 12:16:40;;;;;;;1.52;1.00;;;26.50;44.30;;;;;;5041863;28;20410;-60
2023/07/13 12:19:20;;;;;;;1.20;0.70;;;26.50;44.30;;;;;;5048243;28;20047;-60
2023/07/13 12:21:46;;;;;;;1.77;1.00;;;26.50;44.30;;;;;;5052047;28;20069;-62
2023/07/13 12:24:22;;;;;;;2.10;1.02;;;26.50;44.40;;;;;;5051878;28;20116;-61
2023/07/13 12:26:54;;;;;;;1.38;0.88;;;26.50;44.40;;;;;;5034076;28;20103;-63
2023/07/13 12:29:20;;;;;;;1.83;0.90;;;26.50;44.40;;;;;;5049732;28;20052;-60
2023/07/13 12:31:48;;;;;;;1.75;0.80;;;26.50;44.40;;;;;;5030060;28;20059;-62
2023/07/13 12:34:16;;;;;;;1.30;0.80;;;26.50;44.40;;;;;;5051680;28;20100;-61
2023/07/13 12:36:53;;;;;;;1.45;0.77;;;26.50;44.50;;;;;;5051723;28;20314;-59
2023/07/13 12:39:24;;;;;;;1.23;0.77;;;26.60;44.60;;;;;;5051435;28;20037;-59
2023/07/13 12:41:52;;;;;;;1.63;0.98;;;26.50;44.50;;;;;;5051228;28;20025;-62
2023/07/13 12:44:28;;;;;;;1.85;0.77;;;26.50;44.50;;;;;;5051406;28;20398;-63
2023/07/13 12:47:05;;;;;;;1.63;1.08;;;26.50;44.50;;;;;;5052193;28;20033;-61
2023/07/13 12:49:36;;;;;;;2.03;0.75;;;26.50;44.50;;;;;;5041173;28;20025;-63
2023/07/13 12:52:10;;;;;;;1.55;1.00;;;26.50;44.50;;;;;;5039144;28;20086;-63
2023/07/13 12:54:39;;;;;;;;;;;26.60;44.60;;;;;;5031593;28;20105;-61
2023/07/13 12:57:09;;;;;;;1.65;0.98;;;26.50;44.40;;;;;;5031275;28;19913;-60
2023/07/13 12:59:36;;;;;;;1.00;0.80;;;26.50;44.50;;;;;;5031424;28;20041;-60
2023/07/13 13:02:16;;;;;;;1.80;0.95;;;26.50;44.40;;;;;;5030684;28;20105;-61